Главная страница
METAR-TAF:

METAR-TAF

Аэропорты :

South Jersey Regional Airport

Mount Holly, Нью-Джерси, США

широта: 39-56-26N, долгота: 074-50-28W, высота над уровнем моря: 16 м

Текущие метеонаблюдения

Эта сводка был подготовлена 59 минут назад, в 14:54 UTC
Ветер 4 Узел от юго-западный
Температура 0°C
Влажность 74%
Давление 1020 hPa
Видимость: 11.3 км
Сплошная облачность на высоте 3100 фута

METAR: KVAY 161454Z AUTO 23004KT 7SM OVC031 00/M04 A3013 RMK AO2 SLP204 T00001039 53012

Время: 10:53 (15:53 UTC)


TAF: отсутствует

Метеонаблюдения и прогнозы для более 4000 аэропортов (сводки METAR и TAF).

Имеющиеся станции представлены на карте желтыми и красными точками.

Чтобы увидеть название станции, наведите на нее мышь.

Затем щелкните, чтобы увидеть метеонаблюдения и метеопрогнозы.

Управление картой: чтобы увеличить масштаб, щелкните зеленые кнопки с черным крестиком; чтобы уменьшить масштаб, щелкните зеленую кнопку с тире; для просмотра соседних карт щелкайте зеленые стрелки.


METAR-TAF: